Huntingtown, Maryland
Current Conditions -  °F | °C
As of 12:58 AM on Thursday 23 Oct 2014 (Local Time) from KADW Reporting Station
Broken Clouds Broken Clouds  
Wind Chill: 52°   Ceiling: 3200
Heat Index: 52°   Visibility: 10mi
Dew Point: 43°   Wind: 18mph
Humidity: 71%   Direction: 300°WNW
Pressure: 29.89"   Gusts: 26mph
Location:  38.62°N, 76.61°W
Report Text: KADW 230458Z AUTO 30016G23KT 10SM BKN032 11/06 A2989 RMK AO2 SLP129 T01100060 401240110 $
Loading
Personal Weather Stations






























Interactive Weather Map
Tropical Storm Tracking
New forecast layout! Learn more

10-Day Weather Forecast

Advertisements
Track Severe Weather on mobile